createdAt,value
2019-03-15T00:00:56.939Z,10.03
2019-03-15T00:03:27.748Z,9.70
2019-03-15T00:05:57.502Z,9.40
2019-03-15T00:08:27.515Z,9.13
2019-03-15T00:10:57.380Z,9.17
2019-03-15T00:13:27.253Z,9.27
2019-03-15T00:15:57.447Z,9.53
2019-03-15T00:18:27.405Z,9.97
2019-03-15T00:20:57.201Z,9.60
2019-03-15T00:23:27.180Z,9.30
2019-03-15T00:25:56.937Z,11.27
2019-03-15T00:28:26.854Z,9.63
2019-03-15T00:30:56.831Z,10.83
2019-03-15T00:33:26.586Z,11.20
2019-03-15T00:35:56.412Z,12.03
2019-03-15T00:38:26.246Z,11.53
2019-03-15T00:40:56.196Z,11.50
2019-03-15T00:43:26.060Z,10.73
2019-03-15T00:45:55.781Z,10.00
2019-03-15T00:48:25.724Z,10.90
2019-03-15T00:50:55.664Z,8.30
2019-03-15T00:53:25.504Z,9.23
2019-03-15T00:55:55.133Z,9.50
2019-03-15T00:58:24.880Z,8.73
2019-03-15T01:00:54.635Z,9.63
2019-03-15T01:03:24.266Z,10.50
2019-03-15T01:05:55.055Z,11.30
2019-03-15T01:08:24.802Z,11.17
2019-03-15T01:10:54.612Z,11.90
2019-03-15T01:13:24.478Z,11.23
2019-03-15T01:15:54.044Z,10.90
2019-03-15T01:18:23.757Z,11.63
2019-03-15T01:20:53.624Z,10.60
2019-03-15T01:23:23.496Z,10.63
2019-03-15T01:25:53.406Z,11.23
2019-03-15T01:28:23.436Z,11.70
2019-03-15T01:30:53.238Z,10.77
2019-03-15T01:33:23.182Z,11.50
2019-03-15T01:35:53.131Z,11.30
2019-03-15T01:38:22.985Z,11.57
2019-03-15T01:40:52.720Z,11.40
2019-03-15T01:43:22.881Z,11.30
2019-03-15T01:45:53.630Z,11.60
2019-03-15T01:48:23.597Z,10.93
2019-03-15T01:50:53.433Z,11.97
2019-03-15T01:53:23.614Z,12.73
2019-03-15T01:55:53.563Z,11.77
2019-03-15T01:58:23.422Z,11.07
2019-03-15T02:00:53.260Z,11.47
2019-03-15T02:03:23.083Z,11.37
2019-03-15T02:05:52.826Z,12.20
2019-03-15T02:08:23.526Z,11.10
2019-03-15T02:10:53.647Z,12.13
2019-03-15T02:13:23.412Z,12.27
2019-03-15T02:15:53.171Z,11.33
2019-03-15T02:18:23.185Z,11.90
2019-03-15T02:20:53.324Z,11.80
2019-03-15T02:23:23.556Z,11.27
2019-03-15T02:25:53.532Z,12.33
2019-03-15T02:28:23.413Z,11.90
2019-03-15T02:30:53.317Z,12.17
2019-03-15T02:33:23.236Z,11.93
2019-03-15T02:35:53.067Z,10.87
2019-03-15T02:38:22.938Z,11.40
2019-03-15T02:40:52.746Z,12.00
2019-03-15T02:43:22.725Z,12.30
2019-03-15T02:45:52.551Z,12.13
2019-03-15T02:48:22.447Z,11.53
2019-03-15T02:50:52.219Z,12.80
2019-03-15T02:53:22.130Z,12.30
2019-03-15T02:55:52.085Z,13.20
2019-03-15T02:58:21.975Z,13.17
2019-03-15T03:00:51.776Z,14.03
2019-03-15T03:03:21.660Z,13.43
2019-03-15T03:05:51.426Z,14.60
2019-03-15T03:08:21.347Z,14.97
2019-03-15T03:10:53.335Z,17.83
2019-03-15T03:13:23.098Z,16.53
2019-03-15T03:15:53.182Z,13.97
2019-03-15T03:18:22.840Z,14.00
2019-03-15T03:20:52.539Z,13.33
2019-03-15T03:23:22.307Z,14.77
2019-03-15T03:25:52.081Z,15.03
2019-03-15T03:28:21.897Z,15.80
2019-03-15T03:30:51.672Z,16.20
2019-03-15T03:33:21.318Z,14.80
2019-03-15T03:35:51.137Z,14.80
2019-03-15T03:38:21.260Z,14.73
2019-03-15T03:40:51.065Z,14.60
2019-03-15T03:43:20.899Z,12.97
2019-03-15T03:45:50.859Z,14.00
2019-03-15T03:48:20.603Z,14.60
2019-03-15T03:50:50.545Z,13.17
2019-03-15T03:53:20.299Z,13.90
2019-03-15T03:55:50.164Z,13.13
2019-03-15T03:58:20.245Z,10.50
2019-03-15T04:00:50.015Z,14.40
2019-03-15T04:03:20.233Z,14.73
2019-03-15T04:05:50.759Z,14.87
2019-03-15T04:08:20.651Z,16.67
2019-03-15T04:10:51.784Z,17.37
2019-03-15T04:13:21.846Z,17.67
2019-03-15T04:15:52.871Z,17.07
2019-03-15T04:18:22.906Z,18.33
2019-03-15T04:20:52.799Z,19.37
2019-03-15T04:23:22.681Z,19.03
2019-03-15T04:25:52.655Z,18.53
2019-03-15T04:28:22.568Z,18.13
2019-03-15T04:30:52.416Z,18.80
2019-03-15T04:33:22.273Z,17.97
2019-03-15T04:35:52.284Z,18.27
2019-03-15T04:38:22.024Z,16.77
2019-03-15T04:40:51.919Z,16.87
2019-03-15T04:43:21.805Z,16.70
2019-03-15T04:45:51.730Z,15.23
2019-03-15T04:48:21.518Z,15.07
2019-03-15T04:50:51.293Z,15.13
2019-03-15T04:53:21.226Z,15.43
2019-03-15T04:55:50.987Z,13.57
2019-03-15T04:58:20.749Z,14.13
2019-03-15T05:00:50.566Z,15.40
2019-03-15T05:03:21.063Z,15.97
2019-03-15T05:06:02.413Z,16.13
2019-03-15T05:08:22.874Z,16.17
2019-03-15T05:10:52.904Z,15.90
2019-03-15T05:13:22.659Z,17.40
2019-03-15T05:15:52.299Z,16.20
2019-03-15T05:18:22.139Z,16.50
2019-03-15T05:20:52.024Z,17.30
2019-03-15T05:23:21.874Z,16.00
2019-03-15T05:25:51.588Z,14.73
2019-03-15T05:28:21.311Z,14.47
2019-03-15T05:30:51.108Z,16.43
2019-03-15T05:33:21.016Z,17.37
2019-03-15T05:35:50.978Z,16.83
2019-03-15T05:38:20.742Z,18.67
2019-03-15T05:40:50.565Z,17.70
2019-03-15T05:43:20.439Z,18.97
2019-03-15T05:45:50.180Z,16.37
2019-03-15T05:48:20.092Z,16.93
2019-03-15T05:50:51.289Z,17.53
2019-03-15T05:53:21.048Z,18.07
2019-03-15T05:55:51.012Z,17.53
2019-03-15T05:58:22.098Z,18.30
2019-03-15T06:00:52.262Z,15.67
2019-03-15T06:03:22.072Z,16.63
2019-03-15T06:05:52.025Z,15.70
2019-03-15T06:08:22.014Z,16.37
2019-03-15T06:10:54.669Z,15.10
2019-03-15T06:13:23.652Z,16.93
2019-03-15T06:15:53.379Z,14.73
2019-03-15T06:18:23.213Z,16.53
2019-03-15T06:20:53.059Z,16.73
2019-03-15T06:23:22.862Z,15.63
2019-03-15T06:25:52.935Z,16.37
2019-03-15T06:28:22.894Z,18.77
2019-03-15T06:30:52.892Z,17.47
2019-03-15T06:33:22.690Z,17.40
2019-03-15T06:35:52.667Z,16.83
2019-03-15T06:38:22.427Z,17.03
2019-03-15T06:40:52.264Z,15.50
2019-03-15T06:43:22.165Z,16.10
2019-03-15T06:45:52.111Z,14.30
2019-03-15T06:48:21.999Z,15.23
2019-03-15T06:50:51.936Z,15.90
2019-03-15T06:53:21.779Z,16.03
2019-03-15T06:55:51.558Z,15.10
2019-03-15T06:58:21.399Z,14.90
2019-03-15T07:00:54.362Z,14.97
2019-03-15T07:03:22.517Z,17.30
2019-03-15T07:05:52.465Z,16.90
2019-03-15T07:08:22.262Z,19.67
2019-03-15T07:10:51.967Z,16.70
2019-03-15T07:13:21.750Z,16.07
2019-03-15T07:15:51.621Z,12.73
2019-03-15T07:18:21.636Z,13.83
2019-03-15T07:20:51.429Z,12.77
2019-03-15T07:23:21.149Z,12.60
2019-03-15T07:25:50.941Z,13.33
2019-03-15T07:28:20.781Z,14.03
2019-03-15T07:30:50.704Z,13.50
2019-03-15T07:33:23.135Z,15.50
2019-03-15T07:35:53.399Z,14.53
2019-03-15T07:38:23.230Z,15.30
2019-03-15T07:40:53.150Z,13.97
2019-03-15T07:43:23.043Z,15.07
2019-03-15T07:45:52.854Z,14.97
2019-03-15T07:48:23.232Z,13.63
2019-03-15T07:50:54.257Z,12.17
2019-03-15T07:53:24.017Z,14.10
2019-03-15T07:55:53.841Z,13.33
2019-03-15T07:58:23.805Z,13.00
2019-03-15T08:00:53.676Z,16.80
2019-03-15T08:03:23.717Z,11.57
2019-03-15T08:05:53.553Z,13.53
2019-03-15T08:08:23.564Z,13.23
2019-03-15T08:10:54.978Z,13.00
2019-03-15T08:13:25.057Z,12.40
2019-03-15T08:15:54.933Z,12.23
2019-03-15T08:18:24.727Z,13.17
2019-03-15T08:20:54.794Z,15.43
2019-03-15T08:23:24.852Z,12.43
2019-03-15T08:25:54.698Z,11.57
2019-03-15T08:28:24.533Z,11.53
2019-03-15T08:30:54.338Z,11.50
2019-03-15T08:33:24.213Z,11.37
2019-03-15T08:35:54.142Z,11.80
2019-03-15T08:38:23.861Z,11.70
2019-03-15T08:40:53.815Z,11.80
2019-03-15T08:43:23.648Z,11.93
2019-03-15T08:45:54.423Z,11.83
2019-03-15T08:48:24.391Z,12.23
2019-03-15T08:50:54.324Z,11.87
2019-03-15T08:53:24.123Z,13.67
2019-03-15T08:55:54.305Z,13.03
2019-03-15T08:58:24.027Z,13.00
2019-03-15T09:00:53.823Z,14.70
2019-03-15T09:03:28.246Z,13.43
2019-03-15T09:05:55.304Z,14.17
2019-03-15T09:08:25.051Z,14.10
2019-03-15T09:10:56.056Z,16.50
2019-03-15T09:13:25.873Z,16.03
2019-03-15T09:15:55.581Z,19.77
2019-03-15T09:18:25.570Z,15.27
2019-03-15T09:20:55.307Z,15.27
2019-03-15T09:23:25.161Z,15.17
2019-03-15T09:25:54.848Z,14.80
2019-03-15T09:28:24.550Z,14.90
2019-03-15T09:30:54.413Z,17.70
2019-03-15T09:33:24.168Z,15.23
2019-03-15T09:35:54.158Z,12.67
2019-03-15T09:38:23.808Z,11.97
2019-03-15T09:40:53.764Z,12.57
2019-03-15T09:43:24.689Z,14.37
2019-03-15T09:45:55.596Z,13.80
2019-03-15T09:48:25.617Z,11.13
2019-03-15T09:50:56.684Z,10.40
2019-03-15T09:53:26.474Z,11.40
2019-03-15T09:55:56.168Z,11.20
2019-03-15T09:58:25.953Z,8.83
2019-03-15T10:00:55.767Z,7.03
2019-03-15T10:03:25.449Z,8.87
2019-03-15T10:05:55.144Z,9.37
2019-03-15T10:08:24.928Z,8.90
2019-03-15T10:10:54.772Z,8.27
2019-03-15T10:13:24.721Z,8.47
2019-03-15T10:15:55.842Z,7.70
2019-03-15T10:18:25.797Z,7.10
2019-03-15T10:20:55.551Z,6.00
2019-03-15T10:23:25.319Z,7.10
2019-03-15T10:25:55.093Z,5.07
2019-03-15T10:28:24.806Z,6.20
2019-03-15T10:30:54.651Z,4.77
2019-03-15T10:33:24.527Z,5.13
2019-03-15T10:35:54.466Z,4.67
2019-03-15T10:38:24.414Z,5.57
2019-03-15T10:40:54.180Z,5.97
2019-03-15T10:43:23.971Z,6.70
2019-03-15T10:45:53.632Z,6.97
2019-03-15T10:48:25.541Z,7.47
2019-03-15T10:50:54.984Z,7.53
2019-03-15T10:53:24.788Z,9.10
2019-03-15T10:56:00.038Z,9.30
2019-03-15T10:58:26.258Z,9.93
2019-03-15T11:00:56.015Z,9.50
2019-03-15T11:03:25.802Z,10.97
2019-03-15T11:05:55.719Z,11.43
2019-03-15T11:08:25.570Z,10.57
2019-03-15T11:10:55.355Z,12.93
2019-03-15T11:13:25.268Z,11.93
2019-03-15T11:15:55.249Z,11.77
2019-03-15T11:18:25.081Z,9.43
2019-03-15T11:20:54.797Z,10.47
2019-03-15T11:23:24.662Z,11.03
2019-03-15T11:25:54.542Z,8.67
2019-03-15T11:28:24.358Z,8.63
2019-03-15T11:30:54.293Z,7.60
2019-03-15T11:33:24.175Z,7.93
2019-03-15T11:35:53.987Z,8.07
2019-03-15T11:38:23.864Z,8.20
2019-03-15T11:40:53.708Z,8.27
2019-03-15T11:43:23.558Z,6.67
2019-03-15T11:45:53.407Z,7.00
2019-03-15T11:48:23.286Z,7.50
2019-03-15T11:50:53.212Z,7.27
2019-03-15T11:53:22.949Z,6.50
2019-03-15T11:55:52.752Z,7.57
2019-03-15T11:58:22.463Z,7.43
2019-03-15T12:00:52.406Z,6.50
2019-03-15T12:03:22.251Z,7.10
2019-03-15T12:05:52.335Z,7.50
2019-03-15T12:08:22.086Z,8.50
2019-03-15T12:10:52.016Z,6.47
2019-03-15T12:13:21.847Z,7.37
2019-03-15T12:15:51.762Z,6.57
2019-03-15T12:18:21.829Z,6.87
2019-03-15T12:20:51.596Z,6.93
2019-03-15T12:23:21.483Z,6.60
2019-03-15T12:25:51.408Z,6.40
2019-03-15T12:28:22.615Z,6.60
2019-03-15T12:30:52.355Z,8.57
2019-03-15T12:33:22.189Z,8.70
2019-03-15T12:35:52.048Z,7.03
2019-03-15T12:38:21.922Z,7.70
2019-03-15T12:40:52.353Z,7.20
2019-03-15T12:43:23.174Z,7.30
2019-03-15T12:45:52.905Z,7.57
2019-03-15T12:48:23.082Z,7.60
2019-03-15T12:50:52.924Z,6.70
2019-03-15T12:53:22.634Z,7.30
2019-03-15T12:55:52.593Z,6.17
2019-03-15T12:58:22.409Z,6.43
2019-03-15T13:00:52.186Z,6.90
2019-03-15T13:03:21.897Z,6.60
2019-03-15T13:05:51.766Z,7.30
2019-03-15T13:08:21.608Z,7.33
2019-03-15T13:10:51.238Z,6.37
2019-03-15T13:13:21.198Z,7.07
2019-03-15T13:15:51.056Z,7.03
2019-03-15T13:18:20.882Z,6.93
2019-03-15T13:20:50.852Z,7.37
2019-03-15T13:23:20.712Z,7.30
2019-03-15T13:25:50.625Z,7.90
2019-03-15T13:28:20.396Z,7.73
2019-03-15T13:30:50.160Z,7.33
2019-03-15T13:33:21.095Z,8.33
2019-03-15T13:35:52.361Z,7.77
2019-03-15T13:38:22.162Z,8.40
2019-03-15T13:40:52.094Z,8.23
2019-03-15T13:43:22.049Z,7.60
2019-03-15T13:45:51.835Z,7.33
2019-03-15T13:48:21.791Z,9.50
2019-03-15T13:50:51.535Z,8.10
2019-03-15T13:53:21.253Z,8.00
2019-03-15T13:55:51.244Z,6.43
2019-03-15T13:58:20.972Z,7.10
2019-03-15T14:00:50.788Z,7.70
2019-03-15T14:03:20.620Z,10.13
2019-03-15T14:05:50.652Z,7.53
2019-03-15T14:08:20.405Z,9.50
2019-03-15T14:10:51.437Z,10.40
2019-03-15T14:13:21.301Z,8.33
2019-03-15T14:15:51.113Z,9.97
2019-03-15T14:18:21.688Z,10.70
2019-03-15T14:20:51.597Z,12.07
2019-03-15T14:23:21.407Z,14.60
2019-03-15T14:25:51.150Z,13.80
2019-03-15T14:28:21.112Z,15.10
2019-03-15T14:30:50.950Z,14.83
2019-03-15T14:33:20.738Z,17.83
2019-03-15T14:35:50.588Z,16.60
2019-03-15T14:38:20.511Z,12.80
2019-03-15T14:40:50.434Z,16.60
2019-03-15T14:43:20.575Z,16.23
2019-03-15T14:45:50.238Z,15.47
2019-03-15T14:48:20.093Z,14.33
2019-03-15T14:50:49.922Z,17.27
2019-03-15T14:53:19.699Z,18.53
2019-03-15T14:55:49.382Z,15.13
2019-03-15T14:58:19.282Z,15.43
2019-03-15T15:00:49.140Z,14.10
2019-03-15T15:03:19.116Z,13.90
2019-03-15T15:05:48.965Z,12.43
2019-03-15T15:08:18.922Z,14.80
2019-03-15T15:10:48.780Z,16.37
2019-03-15T15:13:18.794Z,13.27
2019-03-15T15:15:48.667Z,15.83
2019-03-15T15:18:18.548Z,21.50
2019-03-15T15:20:48.349Z,16.73
2019-03-15T15:23:18.444Z,16.77
2019-03-15T15:25:48.191Z,16.70
2019-03-15T15:28:18.112Z,15.40
2019-03-15T15:30:47.906Z,15.70
2019-03-15T15:33:17.859Z,14.93
2019-03-15T15:35:47.852Z,14.77
2019-03-15T15:38:17.696Z,13.43
2019-03-15T15:40:47.544Z,14.67
2019-03-15T15:43:17.622Z,13.20
2019-03-15T15:45:47.541Z,12.67
2019-03-15T15:48:17.354Z,14.43
2019-03-15T15:50:47.298Z,13.83
2019-03-15T15:53:17.045Z,15.27
2019-03-15T15:55:46.799Z,13.97
2019-03-15T15:58:18.157Z,14.33
2019-03-15T16:00:48.346Z,14.23
2019-03-15T16:03:19.582Z,17.70
2019-03-15T16:05:49.466Z,16.80
2019-03-15T16:08:19.331Z,16.73
2019-03-15T16:10:49.223Z,16.77
2019-03-15T16:13:19.190Z,20.10
2019-03-15T16:15:49.004Z,15.70
2019-03-15T16:18:18.903Z,15.47
2019-03-15T16:20:48.715Z,14.93
2019-03-15T16:23:18.635Z,16.50
2019-03-15T16:25:48.551Z,16.67
2019-03-15T16:28:30.817Z,22.13
2019-03-15T16:30:50.131Z,17.80
2019-03-15T16:33:19.855Z,19.93
2019-03-15T16:35:49.681Z,24.43
2019-03-15T16:38:20.808Z,27.27
2019-03-15T16:40:50.676Z,24.07
2019-03-15T16:43:21.957Z,22.53
2019-03-15T16:45:51.678Z,19.87
2019-03-15T16:48:21.581Z,21.70
2019-03-15T16:50:51.994Z,22.70
2019-03-15T16:53:21.844Z,21.93
2019-03-15T16:55:51.681Z,23.13
2019-03-15T16:58:21.476Z,25.10
2019-03-15T17:00:51.171Z,23.50
2019-03-15T17:03:22.117Z,25.67
2019-03-15T17:05:51.939Z,25.60
2019-03-15T17:08:21.844Z,21.57
2019-03-15T17:10:51.881Z,20.00
2019-03-15T17:13:21.789Z,19.57
2019-03-15T17:15:51.591Z,18.73
2019-03-15T17:18:21.410Z,19.13
2019-03-15T17:20:51.143Z,17.93
2019-03-15T17:23:21.004Z,18.70
2019-03-15T17:25:50.994Z,20.43
2019-03-15T17:28:20.905Z,19.83
2019-03-15T17:30:50.849Z,20.77
2019-03-15T17:33:20.714Z,20.10
2019-03-15T17:35:50.565Z,19.53
2019-03-15T17:38:20.431Z,18.93
2019-03-15T17:40:50.452Z,21.17
2019-03-15T17:43:20.314Z,21.77
2019-03-15T17:45:50.148Z,26.63
2019-03-15T17:48:19.991Z,24.73
2019-03-15T17:50:49.930Z,29.00
2019-03-15T17:53:20.968Z,25.93
2019-03-15T17:55:50.987Z,27.53
2019-03-15T17:58:20.752Z,30.03
2019-03-15T18:00:50.748Z,34.17
2019-03-15T18:03:22.052Z,27.83
2019-03-15T18:05:53.174Z,28.30
2019-03-15T18:08:23.211Z,31.27
2019-03-15T18:10:53.062Z,28.07
2019-03-15T18:13:23.004Z,33.70
2019-03-15T18:15:53.011Z,28.50
2019-03-15T18:18:22.893Z,30.93
2019-03-15T18:20:54.021Z,23.63
2019-03-15T18:23:24.073Z,22.97
2019-03-15T18:25:54.106Z,22.57
2019-03-15T18:28:24.045Z,19.70
2019-03-15T18:30:54.048Z,24.80
2019-03-15T18:33:25.108Z,26.27
2019-03-15T18:35:54.970Z,30.93
2019-03-15T18:38:24.868Z,31.93
2019-03-15T18:40:54.625Z,28.87
2019-03-15T18:43:24.344Z,28.97
2019-03-15T18:45:54.174Z,28.73
2019-03-15T18:48:23.985Z,31.57
2019-03-15T18:50:53.900Z,35.00
2019-03-15T18:53:23.863Z,32.27
2019-03-15T18:55:53.769Z,32.07
2019-03-15T18:58:23.440Z,32.20
2019-03-15T19:00:53.251Z,30.93
2019-03-15T19:03:23.052Z,32.87
2019-03-15T19:05:52.756Z,33.10
2019-03-15T19:08:22.917Z,35.33
2019-03-15T19:10:52.791Z,32.13
2019-03-15T19:13:22.641Z,35.93
2019-03-15T19:15:52.619Z,34.00
2019-03-15T19:18:22.550Z,32.67
2019-03-15T19:20:52.512Z,35.70
2019-03-15T19:23:23.397Z,32.80
2019-03-15T19:25:53.204Z,32.63
2019-03-15T19:28:23.132Z,32.67
2019-03-15T19:30:53.235Z,36.13
2019-03-15T19:33:23.144Z,36.17
2019-03-15T19:35:52.966Z,34.67
2019-03-15T19:38:22.739Z,34.80
2019-03-15T19:40:52.615Z,35.03
2019-03-15T19:43:22.531Z,35.37
2019-03-15T19:45:52.305Z,31.53
2019-03-15T19:48:22.093Z,32.50
2019-03-15T19:50:51.934Z,32.27
2019-03-15T19:53:21.784Z,30.77
2019-03-15T19:55:51.615Z,34.17
2019-03-15T19:58:21.567Z,35.43
2019-03-15T20:00:51.361Z,33.97
2019-03-15T20:03:22.317Z,35.63
2019-03-15T20:05:52.190Z,37.83
2019-03-15T20:08:22.103Z,37.33
2019-03-15T20:10:53.092Z,40.90
2019-03-15T20:13:22.855Z,40.33
2019-03-15T20:15:52.686Z,38.97
2019-03-15T20:18:23.682Z,40.20
2019-03-15T20:20:53.473Z,43.97
2019-03-15T20:23:23.244Z,40.57
2019-03-15T20:25:53.093Z,40.67
2019-03-15T20:28:22.924Z,39.37
2019-03-15T20:30:52.685Z,39.67
2019-03-15T20:33:23.831Z,37.80
2019-03-15T20:35:54.056Z,37.77
2019-03-15T20:38:25.024Z,41.33
2019-03-15T20:40:54.784Z,38.23
2019-03-15T20:43:24.629Z,42.90
2019-03-15T20:45:54.592Z,42.13
2019-03-15T20:48:24.504Z,41.47
2019-03-15T20:50:54.261Z,41.97
2019-03-15T20:53:24.233Z,38.50
2019-03-15T20:55:54.404Z,40.03
2019-03-15T20:58:24.211Z,39.73
2019-03-15T21:00:54.326Z,35.53
2019-03-15T21:03:24.311Z,35.07
2019-03-15T21:05:54.162Z,35.53
2019-03-15T21:08:23.903Z,34.37
2019-03-15T21:10:53.714Z,31.97
2019-03-15T21:13:23.536Z,31.30
2019-03-15T21:15:53.529Z,30.90
2019-03-15T21:18:23.323Z,32.03
2019-03-15T21:20:53.104Z,29.57
2019-03-15T21:23:23.014Z,28.67
2019-03-15T21:25:52.808Z,28.67
2019-03-15T21:28:22.622Z,31.20
2019-03-15T21:30:52.698Z,32.23
2019-03-15T21:33:22.557Z,33.27
2019-03-15T21:35:52.378Z,32.47
2019-03-15T21:38:22.359Z,34.43
2019-03-15T21:40:52.201Z,32.43
2019-03-15T21:43:22.100Z,33.87
2019-03-15T21:45:52.093Z,34.67
2019-03-15T21:48:21.964Z,31.60
2019-03-15T21:50:51.969Z,31.33
2019-03-15T21:53:22.225Z,33.53
2019-03-15T21:55:52.044Z,32.10
2019-03-15T21:58:21.814Z,31.03
2019-03-15T22:01:01.718Z,29.60
2019-03-15T22:03:24.448Z,30.63
2019-03-15T22:05:54.216Z,31.37
2019-03-15T22:08:24.333Z,32.07
2019-03-15T22:10:54.338Z,31.67
2019-03-15T22:13:24.249Z,35.87
2019-03-15T22:16:44.022Z,37.50
2019-03-15T22:19:28.417Z,36.20
2019-03-15T22:22:38.153Z,34.43
2019-03-15T22:25:22.189Z,38.37
2019-03-15T22:28:36.626Z,39.67
2019-03-15T22:31:20.776Z,42.10
2019-03-15T22:34:08.246Z,43.37
2019-03-15T22:36:59.131Z,43.27
2019-03-15T22:40:03.214Z,50.10
2019-03-15T22:42:50.579Z,53.87
2019-03-15T22:45:53.210Z,56.27
2019-03-15T22:48:33.318Z,53.23
2019-03-15T22:51:17.471Z,52.80
2019-03-15T22:53:47.138Z,50.43
2019-03-15T22:56:17.032Z,56.70
2019-03-15T22:58:46.873Z,51.90
2019-03-15T23:01:29.273Z,51.83
2019-03-15T23:03:48.219Z,46.77
2019-03-15T23:06:18.253Z,56.23
2019-03-15T23:08:48.117Z,53.30
2019-03-15T23:11:18.513Z,45.57
2019-03-15T23:13:48.422Z,45.47
2019-03-15T23:16:18.188Z,40.20
2019-03-15T23:18:48.121Z,43.40
2019-03-15T23:21:18.051Z,43.17
2019-03-15T23:23:47.873Z,39.20
2019-03-15T23:26:17.697Z,38.27
2019-03-15T23:28:47.997Z,36.67
2019-03-15T23:31:17.716Z,35.97
2019-03-15T23:33:47.545Z,34.53
2019-03-15T23:36:17.618Z,36.83
2019-03-15T23:38:47.522Z,32.33
2019-03-15T23:41:17.396Z,36.03
2019-03-15T23:43:47.310Z,32.40
2019-03-15T23:46:17.266Z,31.97
2019-03-15T23:48:47.032Z,34.57
2019-03-15T23:51:16.739Z,45.77
2019-03-15T23:53:46.478Z,50.77
2019-03-15T23:56:16.287Z,47.63
2019-03-15T23:58:46.107Z,49.27
